createdAt,value
2023-04-30T00:01:40.317Z,98842.34
2023-04-30T00:04:08.056Z,98856.22
2023-04-30T00:06:35.674Z,98853.97
2023-04-30T00:09:04.580Z,98867.53
2023-04-30T00:11:32.056Z,98870.00
2023-04-30T00:13:59.599Z,98855.50
2023-04-30T00:16:27.152Z,98868.22
2023-04-30T00:18:55.106Z,98862.75
2023-04-30T00:21:22.655Z,98871.91
2023-04-30T00:23:50.169Z,98884.94
2023-04-30T00:26:19.004Z,98891.25
2023-04-30T00:28:49.310Z,98903.75
2023-04-30T00:31:16.847Z,98913.84
2023-04-30T00:33:44.588Z,98919.31
2023-04-30T00:36:12.090Z,98914.81
2023-04-30T00:38:40.080Z,98921.44
2023-04-30T00:41:07.671Z,98929.53
2023-04-30T00:43:36.514Z,98939.22
2023-04-30T00:46:06.668Z,98930.06
2023-04-30T00:48:34.792Z,98945.88
2023-04-30T00:51:02.511Z,98934.22
2023-04-30T00:53:29.992Z,98930.75
2023-04-30T00:55:57.588Z,98921.19
2023-04-30T00:58:26.563Z,98917.56
2023-04-30T01:00:55.424Z,98909.56
2023-04-30T01:03:23.207Z,98897.09
2023-04-30T01:05:50.821Z,98884.06
2023-04-30T01:08:18.353Z,98880.19
2023-04-30T01:10:46.975Z,98878.81
2023-04-30T01:13:16.817Z,98877.16
2023-04-30T01:15:46.824Z,98874.38
2023-04-30T01:18:17.559Z,98871.97
2023-04-30T01:20:45.589Z,98866.03
2023-04-30T01:23:21.025Z,98867.94
2023-04-30T01:25:53.532Z,98868.91
2023-04-30T01:28:24.656Z,98858.94
2023-04-30T01:30:53.036Z,98856.56
2023-04-30T01:33:21.107Z,98851.72
2023-04-30T01:36:03.603Z,98844.09
2023-04-30T01:38:34.653Z,98847.66
2023-04-30T01:41:02.880Z,98842.00
2023-04-30T01:43:33.628Z,98846.19
2023-04-30T01:46:03.262Z,98841.13
2023-04-30T01:48:33.621Z,98847.09
2023-04-30T01:51:03.122Z,98863.19
2023-04-30T01:53:38.872Z,98854.59
2023-04-30T01:56:07.106Z,98864.53
2023-04-30T01:58:36.093Z,98847.84
2023-04-30T02:01:03.645Z,98859.75
2023-04-30T02:03:31.217Z,98869.41
2023-04-30T02:05:59.165Z,98857.25
2023-04-30T02:08:27.199Z,98836.81
2023-04-30T02:10:55.003Z,98837.25
2023-04-30T02:13:22.528Z,98834.09
2023-04-30T02:15:51.547Z,98826.03
2023-04-30T02:18:19.148Z,98825.78
2023-04-30T02:20:46.712Z,98805.25
2023-04-30T02:23:14.232Z,98802.75
2023-04-30T02:25:42.521Z,98803.25
2023-04-30T02:28:10.062Z,98794.91
2023-04-30T02:30:37.626Z,98775.53
2023-04-30T02:33:07.170Z,98749.75
2023-04-30T02:35:34.788Z,98732.06
2023-04-30T02:38:02.318Z,98722.78
2023-04-30T02:40:29.888Z,98701.72
2023-04-30T02:42:57.490Z,98689.19
2023-04-30T02:45:25.090Z,98699.88
2023-04-30T02:47:52.696Z,98680.75
2023-04-30T02:50:21.683Z,98691.56
2023-04-30T02:52:49.171Z,98708.41
2023-04-30T02:55:16.774Z,98726.75
2023-04-30T02:57:44.314Z,98713.91
2023-04-30T03:00:13.060Z,98722.09
2023-04-30T03:02:41.023Z,98713.69
2023-04-30T03:05:09.083Z,98702.97
2023-04-30T03:07:38.191Z,98681.59
2023-04-30T03:10:06.403Z,98685.06
2023-04-30T03:12:34.105Z,98690.97
2023-04-30T03:15:01.903Z,98699.56
2023-04-30T03:17:29.429Z,98716.31
2023-04-30T03:19:57.490Z,98721.50
2023-04-30T03:22:26.724Z,98723.88
2023-04-30T03:24:55.979Z,98724.44
2023-04-30T03:27:23.746Z,98727.34
2023-04-30T03:29:51.300Z,98743.59
2023-04-30T03:32:18.816Z,98753.13
2023-04-30T03:34:46.670Z,98772.06
2023-04-30T03:37:14.188Z,98767.28
2023-04-30T03:39:41.723Z,98768.16
2023-04-30T03:42:10.581Z,98777.06
2023-04-30T03:44:39.088Z,98771.97
2023-04-30T03:47:06.844Z,98769.25
2023-04-30T03:49:34.406Z,98766.16
2023-04-30T03:52:02.540Z,98781.28
2023-04-30T03:54:30.092Z,98786.34
2023-04-30T03:56:57.704Z,98777.28
2023-04-30T03:59:26.643Z,98780.81
2023-04-30T04:01:54.190Z,98780.41
2023-04-30T04:04:21.911Z,98758.50
2023-04-30T04:06:49.517Z,98753.38
2023-04-30T04:09:18.814Z,98774.28
2023-04-30T04:11:46.363Z,98766.03
2023-04-30T04:14:13.950Z,98777.34
2023-04-30T04:16:44.574Z,98789.34
2023-04-30T04:19:12.962Z,98771.09
2023-04-30T04:21:40.516Z,98760.91
2023-04-30T04:24:14.662Z,98777.00
2023-04-30T04:26:42.558Z,98781.50
2023-04-30T04:29:11.064Z,98804.56
2023-04-30T04:31:41.756Z,98834.09
2023-04-30T04:34:10.745Z,98847.38
2023-04-30T04:36:38.881Z,98853.59
2023-04-30T04:39:06.692Z,98849.28
2023-04-30T04:41:34.856Z,98839.56
2023-04-30T04:44:04.357Z,98846.00
2023-04-30T04:46:32.067Z,98856.81
2023-04-30T04:49:00.017Z,98856.31
2023-04-30T04:51:28.987Z,98857.59
2023-04-30T04:53:56.524Z,98861.88
2023-04-30T04:56:24.387Z,98868.16
2023-04-30T04:58:54.294Z,98873.16
2023-04-30T05:01:21.880Z,98883.91
2023-04-30T05:04:10.843Z,98877.50
2023-04-30T05:06:40.861Z,98891.50
2023-04-30T05:09:09.626Z,98903.28
2023-04-30T05:11:37.166Z,98928.06
2023-04-30T05:14:04.835Z,98959.34
2023-04-30T05:16:32.377Z,98958.47
2023-04-30T05:18:59.972Z,98949.00
2023-04-30T05:21:29.844Z,98955.06
2023-04-30T05:23:58.769Z,98960.22
2023-04-30T05:26:26.432Z,98967.22
2023-04-30T05:28:54.013Z,98960.41
2023-04-30T05:31:21.548Z,98967.44
2023-04-30T05:33:49.172Z,98976.81
2023-04-30T05:36:16.874Z,98961.56
2023-04-30T05:41:57.047Z,98955.19
2023-04-30T05:44:24.767Z,98991.25
2023-04-30T05:46:52.455Z,98981.16
2023-04-30T05:49:23.511Z,98970.81
2023-04-30T05:51:51.246Z,98977.53
2023-04-30T05:54:19.024Z,98971.09
2023-04-30T05:56:47.394Z,98977.53
2023-04-30T05:59:18.489Z,98971.53
2023-04-30T06:01:49.355Z,98970.88
2023-04-30T06:04:20.100Z,98980.47
2023-04-30T06:06:47.959Z,98989.66
2023-04-30T06:09:18.603Z,98982.84
2023-04-30T06:11:50.543Z,98974.78
2023-04-30T06:14:20.186Z,98983.53
2023-04-30T06:16:48.380Z,98969.41
2023-04-30T06:19:19.248Z,98986.28
2023-04-30T06:21:47.021Z,98990.94
2023-04-30T06:24:14.846Z,98980.38
2023-04-30T06:27:21.582Z,98970.88
2023-04-30T06:29:50.936Z,98973.44
2023-04-30T06:32:44.221Z,98977.97
2023-04-30T06:35:12.113Z,98979.09
2023-04-30T06:37:40.453Z,98961.25
2023-04-30T06:40:17.068Z,98977.06
2023-04-30T06:42:47.569Z,98983.31
2023-04-30T06:45:17.085Z,98989.56
2023-04-30T06:47:46.278Z,98979.78
2023-04-30T06:50:15.645Z,98996.50
2023-04-30T06:52:43.554Z,98971.03
2023-04-30T06:55:11.665Z,98951.91
2023-04-30T06:57:39.980Z,98930.84
2023-04-30T07:00:09.174Z,98944.22
2023-04-30T07:02:38.747Z,98931.25
2023-04-30T07:05:07.148Z,98932.91
2023-04-30T07:07:34.959Z,98925.88
2023-04-30T07:10:02.664Z,98937.19
2023-04-30T07:12:30.422Z,98931.25
2023-04-30T07:14:58.153Z,98911.50
2023-04-30T07:17:27.621Z,98923.19
2023-04-30T07:19:57.085Z,98903.44
2023-04-30T07:22:25.064Z,98890.44
2023-04-30T07:24:52.817Z,98899.25
2023-04-30T07:27:20.547Z,98892.25
2023-04-30T07:29:48.472Z,98894.88
2023-04-30T07:32:16.421Z,98877.72
2023-04-30T07:34:44.181Z,98894.75
2023-04-30T07:37:13.500Z,98876.19
2023-04-30T07:39:41.262Z,98861.31
2023-04-30T07:42:08.987Z,98851.22
2023-04-30T07:44:36.745Z,98859.66
2023-04-30T07:47:04.567Z,98875.09
2023-04-30T07:49:32.278Z,98869.06
2023-04-30T07:52:00.932Z,98863.81
2023-04-30T07:54:30.138Z,98881.25
2023-04-30T07:56:57.941Z,98870.44
2023-04-30T07:59:25.957Z,98871.53
2023-04-30T08:01:53.749Z,98853.94
2023-04-30T08:04:21.560Z,98851.81
2023-04-30T08:06:49.489Z,98859.88
2023-04-30T08:09:17.283Z,98872.47
2023-04-30T08:11:46.538Z,98872.44
2023-04-30T08:14:14.264Z,98876.91
2023-04-30T08:16:42.215Z,98848.88
2023-04-30T08:19:10.014Z,98829.91
2023-04-30T08:21:37.739Z,98843.31
2023-04-30T08:24:05.621Z,98827.28
2023-04-30T08:26:33.366Z,98823.13
2023-04-30T08:29:02.620Z,98840.78
2023-04-30T08:31:30.386Z,98832.91
2023-04-30T08:33:58.165Z,98830.13
2023-04-30T08:36:25.948Z,98824.59
2023-04-30T08:38:53.728Z,98826.13
2023-04-30T08:41:22.062Z,98817.72
2023-04-30T08:43:49.835Z,98784.09
2023-04-30T08:46:21.932Z,98764.41
2023-04-30T08:48:49.750Z,98738.84
2023-04-30T08:51:17.462Z,98726.31
2023-04-30T08:53:45.902Z,98733.38
2023-04-30T08:56:13.652Z,98746.25
2023-04-30T08:58:41.647Z,98747.72
2023-04-30T09:01:09.830Z,98746.97
2023-04-30T09:03:39.378Z,98742.00
2023-04-30T09:06:07.355Z,98752.38
2023-04-30T09:08:44.982Z,98717.59
2023-04-30T09:11:25.850Z,98698.78
2023-04-30T09:13:54.179Z,98682.75
2023-04-30T09:16:22.138Z,98656.47
2023-04-30T09:18:51.550Z,98666.72
2023-04-30T09:21:21.555Z,98631.34
2023-04-30T09:23:55.980Z,98621.72
2023-04-30T09:26:28.149Z,98625.25
2023-04-30T09:28:57.217Z,98605.72
2023-04-30T09:31:26.144Z,98607.69
2023-04-30T09:33:55.316Z,98574.28
2023-04-30T09:36:23.200Z,98548.69
2023-04-30T09:38:50.926Z,98535.84
2023-04-30T09:41:26.229Z,98500.66
2023-04-30T09:43:54.308Z,98477.03
2023-04-30T09:46:22.444Z,98454.03
2023-04-30T09:48:58.972Z,98465.56
2023-04-30T09:51:27.326Z,98453.09
2023-04-30T09:53:55.878Z,98458.75
2023-04-30T09:56:24.543Z,98468.00
2023-04-30T09:58:53.576Z,98437.09
2023-04-30T10:01:21.483Z,98424.78
2023-04-30T10:03:49.643Z,98428.09
2023-04-30T10:06:19.482Z,98436.06
2023-04-30T10:08:48.496Z,98400.28
2023-04-30T10:11:19.712Z,98380.09
2023-04-30T10:13:48.834Z,98344.19
2023-04-30T10:16:19.342Z,98322.22
2023-04-30T10:18:47.288Z,98307.84
2023-04-30T10:21:15.031Z,98304.53
2023-04-30T10:23:44.468Z,98290.59
2023-04-30T10:26:12.973Z,98292.09
2023-04-30T10:28:40.894Z,98267.84
2023-04-30T10:31:09.011Z,98272.31
2023-04-30T10:33:41.699Z,98278.75
2023-04-30T10:36:12.871Z,98288.50
2023-04-30T10:38:40.819Z,98263.53
2023-04-30T10:41:10.676Z,98252.78
2023-04-30T10:43:38.428Z,98245.91
2023-04-30T10:46:06.635Z,98258.28
2023-04-30T10:48:35.926Z,98252.59
2023-04-30T10:51:04.066Z,98262.13
2023-04-30T10:53:32.317Z,98247.56
2023-04-30T10:56:06.567Z,98259.50
2023-04-30T10:58:36.402Z,98254.88
2023-04-30T11:01:06.168Z,98229.84
2023-04-30T11:03:34.466Z,98206.59
2023-04-30T11:06:03.891Z,98212.00
2023-04-30T11:08:35.487Z,98183.50
2023-04-30T11:11:04.960Z,98190.75
2023-04-30T11:13:45.453Z,98175.81
2023-04-30T11:16:13.095Z,98165.72
2023-04-30T11:18:50.103Z,98174.59
2023-04-30T11:21:17.615Z,98163.59
2023-04-30T11:23:45.239Z,98177.19
2023-04-30T11:26:15.928Z,98171.94
2023-04-30T11:28:51.157Z,98168.03
2023-04-30T11:31:18.696Z,98180.44
2023-04-30T11:33:46.431Z,98169.63
2023-04-30T11:36:16.897Z,98172.13
2023-04-30T11:38:45.795Z,98159.38
2023-04-30T11:41:13.957Z,98155.06
2023-04-30T11:43:41.517Z,98161.22
2023-04-30T11:46:11.087Z,98149.88
2023-04-30T11:48:40.748Z,98124.63
2023-04-30T11:51:15.214Z,98138.72
2023-04-30T11:53:46.723Z,98128.28
2023-04-30T11:56:14.371Z,98127.44
2023-04-30T11:58:41.911Z,98118.50
2023-04-30T12:01:20.147Z,98115.63
2023-04-30T12:03:48.511Z,98114.63
2023-04-30T12:06:22.616Z,98109.41
2023-04-30T12:08:51.910Z,98104.00
2023-04-30T12:11:25.124Z,98102.06
2023-04-30T12:13:53.460Z,98095.34
2023-04-30T12:16:25.054Z,98102.25
2023-04-30T12:19:00.880Z,98087.59
2023-04-30T12:21:29.995Z,98087.91
2023-04-30T12:23:57.558Z,98089.63
2023-04-30T12:26:27.478Z,98079.53
2023-04-30T12:28:55.238Z,98088.66
2023-04-30T12:31:27.400Z,98081.13
2023-04-30T12:33:56.900Z,98072.94
2023-04-30T12:39:13.386Z,98070.66
2023-04-30T12:41:41.393Z,98066.81
2023-04-30T12:44:18.366Z,98066.56
2023-04-30T12:46:48.172Z,98053.31
2023-04-30T12:49:23.929Z,98050.59
2023-04-30T12:51:51.607Z,98046.56
2023-04-30T12:54:26.023Z,98041.09
2023-04-30T12:57:00.325Z,98035.72
2023-04-30T12:59:27.893Z,98040.00
2023-04-30T13:01:56.827Z,98032.72
2023-04-30T13:04:24.510Z,98026.78
2023-04-30T13:06:52.247Z,98022.41
2023-04-30T13:09:19.729Z,98021.22
2023-04-30T13:11:47.300Z,98017.38
2023-04-30T13:14:14.795Z,98010.63
2023-04-30T13:16:42.458Z,98011.66
2023-04-30T13:19:11.397Z,98009.34
2023-04-30T13:21:41.602Z,98003.84
2023-04-30T13:24:09.139Z,97996.69
2023-04-30T13:26:37.256Z,97995.78
2023-04-30T13:29:04.824Z,97987.22
2023-04-30T13:31:32.493Z,97976.28
2023-04-30T13:34:00.123Z,97979.00
2023-04-30T13:36:29.314Z,97977.41
2023-04-30T13:38:57.522Z,97970.41
2023-04-30T13:41:26.070Z,97972.34
2023-04-30T13:43:53.667Z,97967.16
2023-04-30T13:46:21.306Z,97967.38
2023-04-30T13:48:51.833Z,97964.66
2023-04-30T13:51:19.336Z,97962.97
2023-04-30T13:53:48.178Z,97960.13
2023-04-30T13:56:16.425Z,97958.44
2023-04-30T13:58:44.161Z,97960.81
2023-04-30T14:01:12.121Z,97957.59
2023-04-30T14:03:39.795Z,97959.50
2023-04-30T14:06:07.485Z,97958.81
2023-04-30T14:08:35.057Z,97956.03
2023-04-30T14:11:03.920Z,97955.94
2023-04-30T14:13:31.487Z,97953.34
2023-04-30T14:15:59.017Z,97956.03
2023-04-30T14:18:26.755Z,97954.88
2023-04-30T14:20:54.268Z,97956.00
2023-04-30T14:23:21.803Z,97954.13
2023-04-30T14:25:49.383Z,97957.25
2023-04-30T14:28:18.285Z,97948.28
2023-04-30T14:30:45.789Z,97946.81
2023-04-30T14:33:13.676Z,97953.31
2023-04-30T14:35:41.590Z,97944.69
2023-04-30T14:38:09.241Z,97941.50
2023-04-30T14:40:36.743Z,97940.59
2023-04-30T14:43:04.312Z,97943.34
2023-04-30T14:45:33.203Z,97934.75
2023-04-30T14:48:02.514Z,97930.06
2023-04-30T14:50:31.506Z,97931.28
2023-04-30T14:52:59.042Z,97930.91
2023-04-30T14:55:26.573Z,97927.72
2023-04-30T14:57:54.295Z,97924.69
2023-04-30T15:00:21.861Z,97929.94
2023-04-30T15:02:50.805Z,97926.66
2023-04-30T15:05:18.392Z,97922.94
2023-04-30T15:07:45.925Z,97913.81
2023-04-30T15:10:13.448Z,97920.75
2023-04-30T15:12:40.989Z,97916.38
2023-04-30T15:15:08.918Z,97917.44
2023-04-30T15:17:37.091Z,97919.16
2023-04-30T15:20:06.780Z,97925.31
2023-04-30T15:22:34.393Z,97917.94
2023-04-30T15:25:02.397Z,97919.22
2023-04-30T15:27:31.771Z,97916.94
2023-04-30T15:30:00.052Z,97913.69
2023-04-30T15:32:27.702Z,97908.38
2023-04-30T15:34:55.234Z,97903.75
2023-04-30T15:37:24.085Z,97907.81
2023-04-30T15:39:51.664Z,97898.56
2023-04-30T15:42:19.210Z,97899.59
2023-04-30T15:44:46.896Z,97903.63
2023-04-30T15:47:14.413Z,97909.19
2023-04-30T15:49:42.373Z,97904.97
2023-04-30T15:52:10.147Z,97904.91
2023-04-30T15:54:39.004Z,97904.44
2023-04-30T15:57:06.585Z,97901.13
2023-04-30T15:59:35.033Z,97899.03
2023-04-30T16:02:05.084Z,97905.25
2023-04-30T16:04:32.640Z,97902.50
2023-04-30T16:07:01.163Z,97890.44
2023-04-30T16:09:31.019Z,97898.09
2023-04-30T16:12:00.176Z,97897.59
2023-04-30T16:14:27.773Z,97889.69
2023-04-30T16:17:00.823Z,97889.81
2023-04-30T16:19:31.550Z,97887.88
2023-04-30T16:22:00.503Z,97886.63
2023-04-30T16:24:28.376Z,97880.16
2023-04-30T16:26:56.363Z,97883.09
2023-04-30T16:29:29.815Z,97883.22
2023-04-30T16:32:03.296Z,97883.25
2023-04-30T16:34:30.980Z,97872.91
2023-04-30T16:36:58.516Z,97871.84
2023-04-30T16:39:26.093Z,97880.22
2023-04-30T16:41:53.590Z,97874.50
2023-04-30T16:44:21.696Z,97875.88
2023-04-30T16:46:50.649Z,97874.88
2023-04-30T16:49:18.156Z,97869.66
2023-04-30T16:51:45.947Z,97877.41
2023-04-30T16:54:13.663Z,97876.94
2023-04-30T16:56:41.361Z,97869.47
2023-04-30T16:59:10.164Z,97868.66
2023-04-30T17:01:37.696Z,97866.47
2023-04-30T17:04:06.744Z,97858.91
2023-04-30T17:06:35.357Z,97864.81
2023-04-30T17:09:05.198Z,97862.63
2023-04-30T17:11:32.885Z,97854.97
2023-04-30T17:14:00.430Z,97861.63
2023-04-30T17:16:30.423Z,97868.50
2023-04-30T17:19:00.676Z,97866.28
2023-04-30T17:21:32.055Z,97861.72
2023-04-30T17:23:59.589Z,97864.72
2023-04-30T17:26:27.225Z,97865.78
2023-04-30T17:28:55.113Z,97860.81
2023-04-30T17:31:22.803Z,97865.72
2023-04-30T17:33:50.393Z,97863.63
2023-04-30T17:36:19.189Z,97866.25
2023-04-30T17:38:49.438Z,97861.88
2023-04-30T17:41:18.515Z,97872.06
2023-04-30T17:43:46.133Z,97869.44
2023-04-30T17:46:16.659Z,97863.22
2023-04-30T17:48:47.243Z,97858.00
2023-04-30T17:51:14.766Z,97866.13
2023-04-30T17:53:46.564Z,97862.34
2023-04-30T17:56:17.756Z,97868.66
2023-04-30T17:58:47.289Z,97865.13
2023-04-30T18:01:17.141Z,97868.28
2023-04-30T18:03:46.166Z,97881.25
2023-04-30T18:06:13.893Z,97882.13
2023-04-30T18:08:41.425Z,97886.59
2023-04-30T18:11:12.183Z,97898.44
2023-04-30T18:13:43.530Z,97904.00
2023-04-30T18:16:12.871Z,97920.75
2023-04-30T18:18:41.014Z,97923.69
2023-04-30T18:21:11.780Z,97930.00
2023-04-30T18:23:42.171Z,97952.13
2023-04-30T18:26:10.487Z,97950.97
2023-04-30T18:28:38.046Z,97981.66
2023-04-30T18:31:08.739Z,97988.53
2023-04-30T18:33:38.718Z,97992.59
2023-04-30T18:36:07.536Z,97996.00
2023-04-30T18:38:49.653Z,98009.34
2023-04-30T18:41:17.173Z,98012.09
2023-04-30T18:43:44.875Z,98023.03
2023-04-30T18:46:13.760Z,98012.97
2023-04-30T18:48:41.301Z,98010.66
2023-04-30T18:51:09.054Z,98022.41
2023-04-30T18:53:38.838Z,98033.66
2023-04-30T18:56:08.531Z,98039.63
2023-04-30T18:58:38.983Z,98062.69
2023-04-30T19:01:08.818Z,98062.06
2023-04-30T19:03:39.274Z,98065.66
2023-04-30T19:06:09.517Z,98070.78
2023-04-30T19:08:39.910Z,98071.56
2023-04-30T19:11:07.446Z,98083.03
2023-04-30T19:13:34.981Z,98081.84
2023-04-30T19:16:02.665Z,98086.97
2023-04-30T19:18:30.209Z,98088.06
2023-04-30T19:21:07.181Z,98089.63
2023-04-30T19:23:35.759Z,98085.28
2023-04-30T19:26:03.347Z,98076.28
2023-04-30T19:28:30.866Z,98068.56
2023-04-30T19:31:01.368Z,98059.41
2023-04-30T19:33:29.965Z,98063.69
2023-04-30T19:35:58.840Z,98055.06
2023-04-30T19:38:26.353Z,98043.78
2023-04-30T19:40:54.924Z,98042.69
2023-04-30T19:43:25.288Z,98063.38
2023-04-30T19:45:53.349Z,98068.91
2023-04-30T19:48:21.090Z,98086.22
2023-04-30T19:50:48.795Z,98104.34
2023-04-30T19:53:17.996Z,98112.06
2023-04-30T19:55:47.007Z,98121.75
2023-04-30T19:58:14.560Z,98131.88
2023-04-30T20:00:42.678Z,98130.03
2023-04-30T20:03:10.497Z,98134.59
2023-04-30T20:05:39.388Z,98142.66
2023-04-30T20:08:07.705Z,98149.28
2023-04-30T20:10:36.958Z,98141.16
2023-04-30T20:13:07.327Z,98151.38
2023-04-30T20:15:35.156Z,98160.72
2023-04-30T20:18:04.996Z,98160.63
2023-04-30T20:20:35.294Z,98166.66
2023-04-30T20:23:14.001Z,98172.13
2023-04-30T20:25:45.388Z,98163.00
2023-04-30T20:28:13.501Z,98142.69
2023-04-30T20:30:42.776Z,98123.13
2023-04-30T20:33:12.230Z,98135.38
2023-04-30T20:35:40.347Z,98139.38
2023-04-30T20:38:11.982Z,98127.38
2023-04-30T20:40:40.552Z,98136.28
2023-04-30T20:43:10.354Z,98145.94
2023-04-30T20:45:37.980Z,98152.94
2023-04-30T20:48:12.959Z,98160.78
2023-04-30T20:50:41.211Z,98176.56
2023-04-30T20:53:23.866Z,98167.63
2023-04-30T20:55:59.728Z,98149.19
2023-04-30T20:58:31.057Z,98155.81
2023-04-30T21:01:06.770Z,98160.84
2023-04-30T21:03:36.676Z,98159.09
2023-04-30T21:06:05.203Z,98173.31
2023-04-30T21:08:40.052Z,98183.03
2023-04-30T21:11:08.344Z,98201.97
2023-04-30T21:13:41.296Z,98207.41
2023-04-30T21:16:09.036Z,98194.34
2023-04-30T21:18:36.645Z,98176.81
2023-04-30T21:21:04.756Z,98167.94
2023-04-30T21:23:32.659Z,98166.38
2023-04-30T21:26:00.240Z,98153.97
2023-04-30T21:28:27.849Z,98156.50
2023-04-30T21:30:56.810Z,98168.16
2023-04-30T21:33:24.436Z,98161.03
2023-04-30T21:35:51.930Z,98163.31
2023-04-30T21:38:19.477Z,98159.22
2023-04-30T21:40:46.999Z,98147.38
2023-04-30T21:43:14.539Z,98126.72
2023-04-30T21:45:43.435Z,98123.97
2023-04-30T21:48:12.489Z,98130.72
2023-04-30T21:50:40.164Z,98113.34
2023-04-30T21:53:08.077Z,98101.00
2023-04-30T21:55:35.803Z,98095.00
2023-04-30T21:58:03.562Z,98098.03
2023-04-30T22:00:31.077Z,98085.50
2023-04-30T22:02:58.985Z,98089.19
2023-04-30T22:05:28.918Z,98086.47
2023-04-30T22:07:56.477Z,98100.00
2023-04-30T22:10:24.222Z,98105.78
2023-04-30T22:12:51.783Z,98115.94
2023-04-30T22:15:19.297Z,98125.78
2023-04-30T22:17:47.699Z,98137.22
2023-04-30T22:20:15.235Z,98135.63
2023-04-30T22:22:44.151Z,98142.97
2023-04-30T22:25:11.674Z,98144.28
2023-04-30T22:27:39.275Z,98164.41
2023-04-30T22:30:07.601Z,98161.28
2023-04-30T22:32:35.365Z,98160.53
2023-04-30T22:35:03.182Z,98154.28
2023-04-30T22:37:31.169Z,98144.97
2023-04-30T22:40:00.113Z,98158.72
2023-04-30T22:42:27.685Z,98175.22
2023-04-30T22:44:55.265Z,98167.53
2023-04-30T22:47:22.834Z,98169.25
2023-04-30T22:49:50.353Z,98173.25
2023-04-30T22:52:18.229Z,98183.31
2023-04-30T22:54:46.464Z,98175.16
2023-04-30T22:57:15.419Z,98164.47
2023-04-30T22:59:43.028Z,98162.34
2023-04-30T23:02:10.558Z,98159.16
2023-04-30T23:04:38.398Z,98175.47
2023-04-30T23:07:06.258Z,98187.81
2023-04-30T23:09:33.886Z,98182.75
2023-04-30T23:12:01.595Z,98176.78
2023-04-30T23:14:30.500Z,98182.25
2023-04-30T23:16:58.188Z,98198.31
2023-04-30T23:19:25.973Z,98203.72
2023-04-30T23:21:53.488Z,98187.91
2023-04-30T23:24:20.987Z,98207.78
2023-04-30T23:26:48.502Z,98204.09
2023-04-30T23:29:16.017Z,98206.13
2023-04-30T23:31:45.086Z,98203.19
2023-04-30T23:34:12.790Z,98199.28
2023-04-30T23:36:40.391Z,98215.84
2023-04-30T23:39:08.183Z,98232.53
2023-04-30T23:41:35.799Z,98223.66
2023-04-30T23:44:03.854Z,98206.28
2023-04-30T23:46:31.440Z,98220.84
2023-04-30T23:49:00.377Z,98223.22
2023-04-30T23:51:27.891Z,98237.16
2023-04-30T23:53:55.388Z,98228.41
2023-04-30T23:56:22.947Z,98225.09
2023-04-30T23:58:50.454Z,98222.84
